createdAt,value
2018-06-08T00:02:03.624Z,6.43
2018-06-08T00:04:32.792Z,6.30
2018-06-08T00:07:01.987Z,6.90
2018-06-08T00:09:31.532Z,7.00
2018-06-08T00:12:00.914Z,6.47
2018-06-08T00:14:29.940Z,6.60
2018-06-08T00:16:59.620Z,6.63
2018-06-08T00:19:28.778Z,6.80
2018-06-08T00:21:58.712Z,6.80
2018-06-08T00:24:27.838Z,7.23
2018-06-08T00:26:57.404Z,6.17
2018-06-08T00:29:26.529Z,6.80
2018-06-08T00:31:55.842Z,7.00
2018-06-08T00:34:24.940Z,6.70
2018-06-08T00:36:53.967Z,6.57
2018-06-08T00:39:23.324Z,7.00
2018-06-08T00:41:52.448Z,7.23
2018-06-08T00:44:21.456Z,7.57
2018-06-08T00:46:51.032Z,7.23
2018-06-08T00:49:20.262Z,7.83
2018-06-08T00:51:49.363Z,7.27
2018-06-08T00:54:18.646Z,6.87
2018-06-08T00:56:59.014Z,6.43
2018-06-08T00:59:28.592Z,6.47
2018-06-08T01:01:57.631Z,6.50
2018-06-08T01:04:26.684Z,6.90
2018-06-08T01:06:56.498Z,6.67
2018-06-08T01:09:25.814Z,6.80
2018-06-08T01:11:54.914Z,6.90
2018-06-08T01:14:31.760Z,7.27
2018-06-08T01:17:01.426Z,7.03
2018-06-08T01:19:33.127Z,6.93
2018-06-08T01:22:02.484Z,7.30
2018-06-08T01:24:32.200Z,7.90
2018-06-08T01:27:01.860Z,8.37
2018-06-08T01:29:30.861Z,6.90
2018-06-08T01:31:59.889Z,7.30
2018-06-08T01:34:29.729Z,7.07
2018-06-08T01:36:58.739Z,7.97
2018-06-08T01:39:27.784Z,7.50
2018-06-08T01:41:57.112Z,9.17
2018-06-08T01:44:26.185Z,8.67
2018-06-08T01:46:55.257Z,7.83
2018-06-08T01:49:24.628Z,7.83
2018-06-08T01:51:53.628Z,7.43
2018-06-08T01:54:22.750Z,7.70
2018-06-08T01:56:52.320Z,8.07
2018-06-08T01:59:21.339Z,8.13
2018-06-08T02:01:50.445Z,9.27
2018-06-08T02:04:19.903Z,8.50
2018-06-08T02:06:48.957Z,8.07
2018-06-08T02:09:18.108Z,8.90
2018-06-08T02:11:48.614Z,8.10
2018-06-08T02:14:17.294Z,8.20
2018-06-08T02:16:46.224Z,7.90
2018-06-08T02:19:16.027Z,8.40
2018-06-08T02:21:45.048Z,8.30
2018-06-08T02:24:13.758Z,9.27
2018-06-08T02:26:43.491Z,9.10
2018-06-08T02:29:12.497Z,8.40
2018-06-08T02:31:41.303Z,8.67
2018-06-08T02:34:11.392Z,8.50
2018-06-08T02:36:40.500Z,8.50
2018-06-08T02:39:09.567Z,9.10
2018-06-08T02:41:39.416Z,8.80
2018-06-08T02:44:08.452Z,8.33
2018-06-08T02:46:37.490Z,8.43
2018-06-08T02:49:06.812Z,9.43
2018-06-08T02:51:35.860Z,8.97
2018-06-08T02:54:04.722Z,9.53
2018-06-08T02:56:34.476Z,9.77
2018-06-08T02:59:03.909Z,11.00
2018-06-08T03:01:32.994Z,10.53
2018-06-08T03:04:02.246Z,9.80
2018-06-08T03:06:31.370Z,10.30
2018-06-08T03:09:00.420Z,9.23
2018-06-08T03:11:29.660Z,10.00
2018-06-08T03:13:58.526Z,9.03
2018-06-08T03:16:27.481Z,9.23
2018-06-08T03:18:56.584Z,9.57
2018-06-08T03:21:26.186Z,8.83
2018-06-08T03:23:55.232Z,9.47
2018-06-08T03:26:24.407Z,9.90
2018-06-08T03:28:53.648Z,10.83
2018-06-08T03:31:22.721Z,11.10
2018-06-08T03:33:51.982Z,9.97
2018-06-08T03:36:21.248Z,9.23
2018-06-08T03:38:50.315Z,8.90
2018-06-08T03:41:19.617Z,10.23
2018-06-08T03:43:49.144Z,10.03
2018-06-08T03:46:18.250Z,11.53
2018-06-08T03:48:47.580Z,11.83
2018-06-08T03:51:17.240Z,11.90
2018-06-08T03:53:46.080Z,10.23
2018-06-08T03:56:15.570Z,10.27
2018-06-08T03:58:45.442Z,10.20
2018-06-08T04:01:15.187Z,8.57
2018-06-08T04:03:44.810Z,9.70
2018-06-08T04:06:13.927Z,9.20
2018-06-08T04:08:42.983Z,9.30
2018-06-08T04:11:12.499Z,9.23
2018-06-08T04:13:41.968Z,9.53
2018-06-08T04:16:11.002Z,9.90
2018-06-08T04:18:40.329Z,9.53
2018-06-08T04:21:09.487Z,9.20
2018-06-08T04:23:38.643Z,9.80
2018-06-08T04:26:09.482Z,10.90
2018-06-08T04:28:38.779Z,11.10
2018-06-08T04:31:07.837Z,12.07
2018-06-08T04:33:37.042Z,10.97
2018-06-08T04:36:06.203Z,14.40
2018-06-08T04:38:35.271Z,13.03
2018-06-08T04:41:04.681Z,14.33
2018-06-08T04:43:33.878Z,14.00
2018-06-08T04:46:02.973Z,12.13
2018-06-08T04:48:32.611Z,10.83
2018-06-08T04:51:02.084Z,10.73
2018-06-08T04:53:31.129Z,9.90
2018-06-08T04:56:00.444Z,10.90
2018-06-08T04:58:29.604Z,10.50
2018-06-08T05:00:58.636Z,11.37
2018-06-08T05:03:28.099Z,10.93
2018-06-08T05:05:57.576Z,11.20
2018-06-08T05:08:26.667Z,11.83
2018-06-08T05:10:56.029Z,11.20
2018-06-08T05:13:25.474Z,13.90
2018-06-08T05:15:54.516Z,13.80
2018-06-08T05:18:23.698Z,15.40
2018-06-08T05:20:52.957Z,14.47
2018-06-08T05:23:22.319Z,14.33
2018-06-08T05:25:51.430Z,15.07
2018-06-08T05:28:20.853Z,15.50
2018-06-08T05:30:49.903Z,15.13
2018-06-08T05:33:19.051Z,15.77
2018-06-08T05:35:48.352Z,15.60
2018-06-08T05:38:17.465Z,17.93
2018-06-08T05:40:46.916Z,18.07
2018-06-08T05:43:16.153Z,17.37
2018-06-08T05:45:45.172Z,18.10
2018-06-08T05:48:14.597Z,17.47
2018-06-08T05:50:44.103Z,17.50
2018-06-08T05:53:13.106Z,16.00
2018-06-08T05:55:42.524Z,17.40
2018-06-08T05:58:12.055Z,17.20
2018-06-08T06:00:41.079Z,18.33
2018-06-08T06:03:10.366Z,18.30
2018-06-08T06:05:39.862Z,19.20
2018-06-08T06:08:08.947Z,19.30
2018-06-08T06:10:38.279Z,19.30
2018-06-08T06:13:07.765Z,18.80
2018-06-08T06:15:36.789Z,20.60
2018-06-08T06:18:06.236Z,19.40
2018-06-08T06:20:35.649Z,20.00
2018-06-08T06:23:04.693Z,19.40
2018-06-08T06:25:34.034Z,20.30
2018-06-08T06:28:03.560Z,19.73
2018-06-08T06:30:33.059Z,20.10
2018-06-08T06:33:02.098Z,19.63
2018-06-08T06:35:31.469Z,19.40
2018-06-08T06:38:00.925Z,19.00
2018-06-08T06:40:29.707Z,21.77
2018-06-08T06:42:59.053Z,21.53
2018-06-08T06:45:28.385Z,19.67
2018-06-08T06:47:57.427Z,20.80
2018-06-08T06:50:26.772Z,18.90
2018-06-08T06:52:56.103Z,18.73
2018-06-08T06:55:25.235Z,19.80
2018-06-08T06:57:54.573Z,19.07
2018-06-08T07:00:23.659Z,18.97
2018-06-08T07:02:52.597Z,21.17
2018-06-08T07:05:21.849Z,19.80
2018-06-08T07:07:51.348Z,19.70
2018-06-08T07:10:20.534Z,20.20
2018-06-08T07:12:50.057Z,20.00
2018-06-08T07:15:19.303Z,20.30
2018-06-08T07:17:48.383Z,20.07
2018-06-08T07:20:17.938Z,18.90
2018-06-08T07:22:47.177Z,17.33
2018-06-08T07:25:16.242Z,17.00
2018-06-08T07:27:45.532Z,15.97
2018-06-08T07:30:14.893Z,19.00
2018-06-08T07:32:43.946Z,17.67
2018-06-08T07:35:13.427Z,19.33
2018-06-08T07:37:42.925Z,17.67
2018-06-08T07:40:12.199Z,17.03
2018-06-08T07:42:41.630Z,18.30
2018-06-08T07:45:10.997Z,17.83
2018-06-08T07:47:40.099Z,17.67
2018-06-08T07:50:09.046Z,16.10
2018-06-08T07:52:38.286Z,17.93
2018-06-08T07:55:07.437Z,16.50
2018-06-08T07:57:36.876Z,16.00
2018-06-08T08:00:06.190Z,15.83
2018-06-08T08:02:35.243Z,15.47
2018-06-08T08:05:04.713Z,17.70
2018-06-08T08:07:34.140Z,16.67
2018-06-08T08:10:03.174Z,16.77
2018-06-08T08:12:32.210Z,16.60
2018-06-08T08:15:01.300Z,15.57
2018-06-08T08:17:30.292Z,15.90
2018-06-08T08:19:59.626Z,16.33
2018-06-08T08:22:28.965Z,16.00
2018-06-08T08:24:58.446Z,14.90
2018-06-08T08:27:27.805Z,14.63
2018-06-08T08:29:56.962Z,12.70
2018-06-08T08:32:25.701Z,14.03
2018-06-08T08:34:54.823Z,15.53
2018-06-08T08:37:24.193Z,13.57
2018-06-08T08:39:53.157Z,14.37
2018-06-08T08:42:22.695Z,12.70
2018-06-08T08:44:51.976Z,12.00
2018-06-08T08:47:21.095Z,13.03
2018-06-08T08:49:50.574Z,11.70
2018-06-08T08:52:19.959Z,13.70
2018-06-08T08:54:48.979Z,11.90
2018-06-08T08:57:18.209Z,11.83
2018-06-08T08:59:47.346Z,13.40
2018-06-08T09:02:16.457Z,12.03
2018-06-08T09:04:45.842Z,12.90
2018-06-08T09:07:14.952Z,12.67
2018-06-08T09:09:44.074Z,13.83
2018-06-08T09:12:13.350Z,14.10
2018-06-08T09:14:42.668Z,14.20
2018-06-08T09:17:11.770Z,13.87
2018-06-08T09:19:41.019Z,13.97
2018-06-08T09:22:10.236Z,14.10
2018-06-08T09:24:40.384Z,13.50
2018-06-08T09:27:09.784Z,14.67
2018-06-08T09:29:38.852Z,14.40
2018-06-08T09:32:08.007Z,13.10
2018-06-08T09:34:39.245Z,13.23
2018-06-08T09:37:09.226Z,13.47
2018-06-08T09:39:38.266Z,13.47
2018-06-08T09:42:07.908Z,12.73
2018-06-08T09:44:37.357Z,14.63
2018-06-08T09:47:06.464Z,15.23
2018-06-08T09:49:36.116Z,13.70
2018-06-08T09:52:05.072Z,15.73
2018-06-08T09:54:34.054Z,15.10
2018-06-08T09:57:03.708Z,13.30
2018-06-08T09:59:32.909Z,14.90
2018-06-08T10:02:02.228Z,14.30
2018-06-08T10:04:31.736Z,14.20
2018-06-08T10:07:01.518Z,13.83
2018-06-08T10:09:30.493Z,13.80
2018-06-08T10:11:59.841Z,15.30
2018-06-08T10:14:29.056Z,14.97
2018-06-08T10:16:58.132Z,14.47
2018-06-08T10:19:27.640Z,14.03
2018-06-08T10:21:57.249Z,14.73
2018-06-08T10:24:26.269Z,15.37
2018-06-08T10:26:55.738Z,15.93
2018-06-08T10:29:25.908Z,14.50
2018-06-08T10:31:55.098Z,14.70
2018-06-08T10:34:24.100Z,14.20
2018-06-08T10:36:53.275Z,14.40
2018-06-08T10:39:22.556Z,16.77
2018-06-08T10:41:51.560Z,15.20
2018-06-08T10:44:20.872Z,13.63
2018-06-08T10:46:50.244Z,13.03
2018-06-08T10:49:19.316Z,13.17
2018-06-08T10:51:48.895Z,13.40
2018-06-08T10:54:17.939Z,15.40
2018-06-08T10:56:46.912Z,15.47
2018-06-08T10:59:16.358Z,14.10
2018-06-08T11:01:45.633Z,13.90
2018-06-08T11:04:15.275Z,13.50
2018-06-08T11:06:44.564Z,13.60
2018-06-08T11:09:13.849Z,15.30
2018-06-08T11:11:42.871Z,12.00
2018-06-08T11:14:12.148Z,13.40
2018-06-08T11:16:41.533Z,11.47
2018-06-08T11:19:10.703Z,12.20
2018-06-08T11:21:39.721Z,11.60
2018-06-08T11:24:08.957Z,12.10
2018-06-08T11:26:38.021Z,11.90
2018-06-08T11:29:07.167Z,11.77
2018-06-08T11:31:36.731Z,13.43
2018-06-08T11:34:05.959Z,13.50
2018-06-08T11:36:35.121Z,10.70
2018-06-08T11:39:06.456Z,10.30
2018-06-08T11:41:35.607Z,10.50
2018-06-08T11:44:04.994Z,10.40
2018-06-08T11:46:34.086Z,11.80
2018-06-08T11:49:03.485Z,10.47
2018-06-08T11:51:32.542Z,9.23
2018-06-08T11:54:01.662Z,10.70
2018-06-08T11:56:30.786Z,9.50
2018-06-08T11:58:59.852Z,10.27
2018-06-08T12:01:29.289Z,8.80
2018-06-08T12:03:58.641Z,8.60
2018-06-08T12:06:27.648Z,8.90
2018-06-08T12:08:56.853Z,8.37
2018-06-08T12:11:26.083Z,8.47
2018-06-08T12:13:55.132Z,10.13
2018-06-08T12:16:24.426Z,10.00
2018-06-08T12:18:53.624Z,10.07
2018-06-08T12:21:22.748Z,11.03
2018-06-08T12:23:52.331Z,12.10
2018-06-08T12:26:22.210Z,10.93
2018-06-08T12:28:50.950Z,11.27
2018-06-08T12:31:20.070Z,10.50
2018-06-08T12:33:49.441Z,10.80
2018-06-08T12:36:18.484Z,10.30
2018-06-08T12:38:47.420Z,10.00
2018-06-08T12:41:16.544Z,10.40
2018-06-08T12:43:46.068Z,9.77
2018-06-08T12:46:15.310Z,8.87
2018-06-08T12:48:44.427Z,9.60
2018-06-08T12:51:13.514Z,9.17
2018-06-08T12:53:42.614Z,10.47
2018-06-08T12:56:11.840Z,9.33
2018-06-08T12:58:41.016Z,11.80
2018-06-08T13:01:10.289Z,11.00
2018-06-08T13:03:39.673Z,9.93
2018-06-08T13:06:08.740Z,10.60
2018-06-08T13:08:38.112Z,10.47
2018-06-08T13:11:07.317Z,10.83
2018-06-08T13:13:36.392Z,9.53
2018-06-08T13:16:05.788Z,9.83
2018-06-08T13:18:35.188Z,9.70
2018-06-08T13:21:04.300Z,9.50
2018-06-08T13:23:33.688Z,9.50
2018-06-08T13:26:03.094Z,8.90
2018-06-08T13:28:32.165Z,7.70
2018-06-08T13:31:01.383Z,9.00
2018-06-08T13:33:30.824Z,8.70
2018-06-08T13:35:59.995Z,8.43
2018-06-08T13:38:29.271Z,8.10
2018-06-08T13:40:58.481Z,7.80
2018-06-08T13:43:27.647Z,8.33
2018-06-08T13:45:56.843Z,8.23
2018-06-08T13:48:26.018Z,8.57
2018-06-08T13:50:55.083Z,7.93
2018-06-08T13:53:24.675Z,8.87
2018-06-08T13:55:54.197Z,8.70
2018-06-08T13:58:23.284Z,6.00
2018-06-08T14:00:52.566Z,5.10
2018-06-08T14:03:21.789Z,4.30
2018-06-08T14:05:50.882Z,4.10
2018-06-08T14:08:20.293Z,4.40
2018-06-08T14:10:50.418Z,3.70
2018-06-08T14:13:20.145Z,4.00
2018-06-08T14:15:49.000Z,3.70
2018-06-08T14:18:18.092Z,4.10
2018-06-08T14:20:47.278Z,3.90
2018-06-08T14:23:16.560Z,5.00
2018-06-08T14:25:45.935Z,4.97
2018-06-08T14:28:14.992Z,5.13
2018-06-08T14:30:44.307Z,5.10
2018-06-08T14:33:13.896Z,4.57
2018-06-08T14:35:42.952Z,4.30
2018-06-08T14:38:12.395Z,5.63
2018-06-08T14:40:41.499Z,6.00
2018-06-08T14:43:10.849Z,6.00
2018-06-08T14:45:40.029Z,6.80
2018-06-08T14:48:09.306Z,6.03
2018-06-08T14:50:38.410Z,7.20
2018-06-08T14:53:07.870Z,6.97
2018-06-08T14:55:37.326Z,7.30
2018-06-08T14:58:06.049Z,6.87
2018-06-08T15:00:35.363Z,7.60
2018-06-08T15:03:04.493Z,6.80
2018-06-08T15:05:33.545Z,7.17
2018-06-08T15:08:03.161Z,6.60
2018-06-08T15:10:32.493Z,7.30
2018-06-08T15:13:01.565Z,7.20
2018-06-08T15:15:31.465Z,6.57
2018-06-08T15:18:00.951Z,7.50
2018-06-08T15:20:30.825Z,7.70
2018-06-08T15:23:00.575Z,6.67
2018-06-08T15:25:30.104Z,6.97
2018-06-08T15:27:59.151Z,6.93
2018-06-08T15:30:27.973Z,7.17
2018-06-08T15:32:57.051Z,7.10
2018-06-08T15:35:26.105Z,7.10
2018-06-08T15:37:55.563Z,7.07
2018-06-08T15:40:24.773Z,6.70
2018-06-08T15:42:54.369Z,6.63
2018-06-08T15:45:23.506Z,5.73
2018-06-08T15:47:52.869Z,5.87
2018-06-08T15:50:21.907Z,6.90
2018-06-08T15:52:51.372Z,6.27
2018-06-08T15:55:20.739Z,4.90
2018-06-08T15:57:49.788Z,5.33
2018-06-08T16:00:19.453Z,4.90
2018-06-08T16:02:49.367Z,5.23
2018-06-08T16:05:18.404Z,5.50
2018-06-08T16:07:47.777Z,5.40
2018-06-08T16:10:17.182Z,5.43
2018-06-08T16:12:46.301Z,5.17
2018-06-08T16:15:15.868Z,5.40
2018-06-08T16:17:45.439Z,5.50
2018-06-08T16:20:14.487Z,5.10
2018-06-08T16:22:44.109Z,5.23
2018-06-08T16:25:13.068Z,5.60
2018-06-08T16:27:42.004Z,6.70
2018-06-08T16:30:11.243Z,7.00
2018-06-08T16:32:40.445Z,6.67
2018-06-08T16:35:09.491Z,6.10
2018-06-08T16:37:38.872Z,6.40
2018-06-08T16:40:08.264Z,5.73
2018-06-08T16:42:37.362Z,5.43
2018-06-08T16:45:06.571Z,6.50
2018-06-08T16:47:35.851Z,5.83
2018-06-08T16:50:04.915Z,6.50
2018-06-08T16:52:34.057Z,6.30
2018-06-08T16:55:03.311Z,5.90
2018-06-08T16:57:33.883Z,7.17
2018-06-08T17:00:03.385Z,7.23
2018-06-08T17:02:32.495Z,7.03
2018-06-08T17:05:01.575Z,6.83
2018-06-08T17:07:30.977Z,6.47
2018-06-08T17:10:00.098Z,7.33
2018-06-08T17:12:29.241Z,6.93
2018-06-08T17:14:58.583Z,7.17
2018-06-08T17:17:27.745Z,6.60
2018-06-08T17:19:56.797Z,6.63
2018-06-08T17:22:26.479Z,7.40
2018-06-08T17:24:56.477Z,7.47
2018-06-08T17:27:25.549Z,8.20
2018-06-08T17:29:54.587Z,7.27
2018-06-08T17:32:23.743Z,7.00
2018-06-08T17:34:53.477Z,7.73
2018-06-08T17:37:22.880Z,8.90
2018-06-08T17:39:52.309Z,8.40
2018-06-08T17:42:21.351Z,7.47
2018-06-08T17:44:50.380Z,7.60
2018-06-08T17:47:19.513Z,8.37
2018-06-08T17:49:48.587Z,8.43
2018-06-08T17:52:18.261Z,7.90
2018-06-08T17:54:47.260Z,8.03
2018-06-08T17:57:16.219Z,7.70
2018-06-08T17:59:46.270Z,9.10
2018-06-08T18:02:15.642Z,8.80
2018-06-08T18:04:45.141Z,9.03
2018-06-08T18:07:14.981Z,9.40
2018-06-08T18:09:44.166Z,8.57
2018-06-08T18:12:13.250Z,8.70
2018-06-08T18:14:42.291Z,8.50
2018-06-08T18:17:11.483Z,9.17
2018-06-08T18:19:40.524Z,9.00
2018-06-08T18:22:10.001Z,10.07
2018-06-08T18:24:39.381Z,10.73
2018-06-08T18:27:08.486Z,9.93
2018-06-08T18:29:37.684Z,9.40
2018-06-08T18:32:07.250Z,10.40
2018-06-08T18:34:36.469Z,10.70
2018-06-08T18:37:06.074Z,11.90
2018-06-08T18:39:35.484Z,13.73
2018-06-08T18:42:05.332Z,12.03
2018-06-08T18:44:34.592Z,10.60
2018-06-08T18:47:04.032Z,10.80
2018-06-08T18:49:33.090Z,11.30
2018-06-08T18:52:02.248Z,10.27
2018-06-08T18:54:31.654Z,10.63
2018-06-08T18:57:00.406Z,10.33
2018-06-08T18:59:29.785Z,10.70
2018-06-08T19:01:59.202Z,11.40
2018-06-08T19:04:28.304Z,11.00
2018-06-08T19:06:57.692Z,10.60
2018-06-08T19:09:26.939Z,10.67
2018-06-08T19:11:55.998Z,10.60
2018-06-08T19:14:25.468Z,11.67
2018-06-08T19:16:54.225Z,10.87
2018-06-08T19:19:23.264Z,11.17
2018-06-08T19:21:52.555Z,10.00
2018-06-08T19:24:21.935Z,10.47
2018-06-08T19:26:51.096Z,9.73
2018-06-08T19:29:20.464Z,9.67
2018-06-08T19:31:49.562Z,8.83
2018-06-08T19:34:18.667Z,9.80
2018-06-08T19:36:48.361Z,8.50
2018-06-08T19:39:17.489Z,9.60
2018-06-08T19:41:46.602Z,10.60
2018-06-08T19:44:15.949Z,10.90
2018-06-08T19:46:45.332Z,12.20
2018-06-08T19:49:14.375Z,10.53
2018-06-08T19:51:43.591Z,11.43
2018-06-08T19:54:12.710Z,12.10
2018-06-08T19:56:41.511Z,11.83
2018-06-08T19:59:10.652Z,11.77
2018-06-08T20:01:39.828Z,11.67
2018-06-08T20:04:09.560Z,11.37
2018-06-08T20:06:38.714Z,11.17
2018-06-08T20:09:08.212Z,11.17
2018-06-08T20:11:36.935Z,12.90
2018-06-08T20:14:06.516Z,12.87
2018-06-08T20:16:35.535Z,12.63
2018-06-08T20:19:04.625Z,12.63
2018-06-08T20:21:33.705Z,13.03
2018-06-08T20:24:03.055Z,13.10
2018-06-08T20:26:32.238Z,13.93
2018-06-08T20:29:01.824Z,13.20
2018-06-08T20:31:31.271Z,13.50
2018-06-08T20:34:00.350Z,14.73
2018-06-08T20:36:29.607Z,14.17
2018-06-08T20:38:59.377Z,13.23
2018-06-08T20:41:28.548Z,14.93
2018-06-08T20:43:57.917Z,14.37
2018-06-08T20:46:27.108Z,15.60
2018-06-08T20:48:56.270Z,15.50
2018-06-08T20:51:25.818Z,14.27
2018-06-08T20:53:55.265Z,13.90
2018-06-08T20:56:24.388Z,15.30
2018-06-08T20:58:53.513Z,13.77
2018-06-08T21:01:22.646Z,14.27
2018-06-08T21:03:51.711Z,14.27
2018-06-08T21:06:20.896Z,15.23
2018-06-08T21:08:50.405Z,14.33
2018-06-08T21:11:19.465Z,11.03
2018-06-08T21:13:48.522Z,11.00
2018-06-08T21:16:18.001Z,9.57
2018-06-08T21:18:47.137Z,12.60
2018-06-08T21:21:16.296Z,11.20
2018-06-08T21:23:45.660Z,12.90
2018-06-08T21:26:14.512Z,10.30
2018-06-08T21:28:43.787Z,11.60
2018-06-08T21:31:13.949Z,9.17
2018-06-08T21:33:43.209Z,10.13
2018-06-08T21:36:12.608Z,11.90
2018-06-08T21:38:41.995Z,11.17
2018-06-08T21:41:11.505Z,11.43
2018-06-08T21:43:41.309Z,10.13
2018-06-08T21:46:10.307Z,12.10
2018-06-08T21:48:39.325Z,11.53
2018-06-08T21:51:08.777Z,11.23
2018-06-08T21:53:37.954Z,12.10
2018-06-08T21:56:07.161Z,11.93
2018-06-08T21:58:36.617Z,11.73
2018-06-08T22:01:05.897Z,10.80
2018-06-08T22:03:35.027Z,11.83
2018-06-08T22:06:05.317Z,11.40
2018-06-08T22:08:34.407Z,11.83
2018-06-08T22:11:03.090Z,11.10
2018-06-08T22:13:32.723Z,10.77
2018-06-08T22:16:01.897Z,10.63
2018-06-08T22:18:30.934Z,9.93
2018-06-08T22:21:00.545Z,10.77
2018-06-08T22:23:29.587Z,10.50
2018-06-08T22:25:58.736Z,10.40
2018-06-08T22:28:28.703Z,10.30
2018-06-08T22:30:57.715Z,11.47
2018-06-08T22:33:26.749Z,11.50
2018-06-08T22:35:56.295Z,11.87
2018-06-08T22:38:24.996Z,12.33
2018-06-08T22:40:54.006Z,11.83
2018-06-08T22:43:23.278Z,10.90
2018-06-08T22:45:52.006Z,11.17
2018-06-08T22:48:21.051Z,11.10
2018-06-08T22:50:50.605Z,11.47
2018-06-08T22:53:19.727Z,10.90
2018-06-08T22:55:48.791Z,12.43
2018-06-08T22:58:18.444Z,11.53
2018-06-08T23:00:47.172Z,12.83
2018-06-08T23:03:16.135Z,13.27
2018-06-08T23:05:45.999Z,12.53
2018-06-08T23:08:15.023Z,12.10
2018-06-08T23:10:43.723Z,13.00
2018-06-08T23:13:13.644Z,12.37
2018-06-08T23:15:42.729Z,14.20
2018-06-08T23:18:11.751Z,13.43
2018-06-08T23:20:41.397Z,13.60
2018-06-08T23:23:10.524Z,12.90
2018-06-08T23:25:39.232Z,13.03
2018-06-08T23:28:09.442Z,13.20
2018-06-08T23:30:38.510Z,12.73
2018-06-08T23:33:07.809Z,12.37
2018-06-08T23:35:37.574Z,11.97
2018-06-08T23:38:06.668Z,11.40
2018-06-08T23:40:35.712Z,11.70
2018-06-08T23:43:05.378Z,12.83
2018-06-08T23:45:34.398Z,11.23
2018-06-08T23:48:03.498Z,12.70
2018-06-08T23:50:33.265Z,13.10
2018-06-08T23:53:02.410Z,12.50
2018-06-08T23:55:31.467Z,12.17
2018-06-08T23:58:01.078Z,11.93
